sensor_id;sensor_type;location;lat;lon;timestamp;P1;durP1;ratioP1;P2;durP2;ratioP2
57055;SDS011;42945;51.718;5.324;2023-02-28T00:01:31;11.93;;;4.78;;
57055;SDS011;42945;51.718;5.324;2023-02-28T00:07:19;9.93;;;4.75;;
57055;SDS011;42945;51.718;5.324;2023-02-28T00:17:00;7.60;;;3.97;;
57055;SDS011;42945;51.718;5.324;2023-02-28T00:22:49;7.03;;;4.50;;
57055;SDS011;42945;51.718;5.324;2023-02-28T00:28:38;11.10;;;4.97;;
57055;SDS011;42945;51.718;5.324;2023-02-28T00:34:26;12.90;;;4.68;;
57055;SDS011;42945;51.718;5.324;2023-02-28T00:40:14;9.50;;;4.75;;
57055;SDS011;42945;51.718;5.324;2023-02-28T00:46:04;8.32;;;5.00;;
57055;SDS011;42945;51.718;5.324;2023-02-28T00:51:52;11.48;;;4.72;;
57055;SDS011;42945;51.718;5.324;2023-02-28T00:57:41;9.07;;;5.10;;
57055;SDS011;42945;51.718;5.324;2023-02-28T01:03:30;10.75;;;4.57;;
57055;SDS011;42945;51.718;5.324;2023-02-28T01:09:19;8.93;;;4.43;;
57055;SDS011;42945;51.718;5.324;2023-02-28T01:19:03;10.25;;;4.65;;
57055;SDS011;42945;51.718;5.324;2023-02-28T01:24:50;8.70;;;4.82;;
57055;SDS011;42945;51.718;5.324;2023-02-28T01:30:38;12.18;;;4.65;;
57055;SDS011;42945;51.718;5.324;2023-02-28T01:36:26;8.02;;;4.88;;
57055;SDS011;42945;51.718;5.324;2023-02-28T01:42:14;9.25;;;4.65;;
57055;SDS011;42945;51.718;5.324;2023-02-28T01:48:04;11.57;;;4.32;;
57055;SDS011;42945;51.718;5.324;2023-02-28T01:53:56;9.05;;;4.68;;
57055;SDS011;42945;51.718;5.324;2023-02-28T01:59:52;10.52;;;4.38;;
57055;SDS011;42945;51.718;5.324;2023-02-28T02:05:28;9.27;;;4.60;;
57055;SDS011;42945;51.718;5.324;2023-02-28T02:11:22;10.57;;;4.78;;
57055;SDS011;42945;51.718;5.324;2023-02-28T02:40:29;9.30;;;5.15;;
57055;SDS011;42945;51.718;5.324;2023-02-28T02:46:13;10.18;;;5.10;;
57055;SDS011;42945;51.718;5.324;2023-02-28T02:52:08;9.27;;;4.88;;
57055;SDS011;42945;51.718;5.324;2023-02-28T02:58:04;11.85;;;5.13;;
57055;SDS011;42945;51.718;5.324;2023-02-28T03:04:10;10.15;;;5.57;;
57055;SDS011;42945;51.718;5.324;2023-02-28T03:10:25;11.23;;;5.28;;
57055;SDS011;42945;51.718;5.324;2023-02-28T03:16:35;12.18;;;5.15;;
57055;SDS011;42945;51.718;5.324;2023-02-28T03:22:46;11.68;;;5.32;;
57055;SDS011;42945;51.718;5.324;2023-02-28T03:34:35;11.05;;;5.22;;
57055;SDS011;42945;51.718;5.324;2023-02-28T03:40:25;10.35;;;4.78;;
57055;SDS011;42945;51.718;5.324;2023-02-28T03:46:20;12.02;;;5.20;;
57055;SDS011;42945;51.718;5.324;2023-02-28T03:52:12;10.63;;;5.47;;
57055;SDS011;42945;51.718;5.324;2023-02-28T03:58:01;12.43;;;5.50;;
57055;SDS011;42945;51.718;5.324;2023-02-28T04:04:05;10.85;;;5.30;;
57055;SDS011;42945;51.718;5.324;2023-02-28T04:09:54;9.55;;;5.53;;
57055;SDS011;42945;51.718;5.324;2023-02-28T04:15:42;14.13;;;5.45;;
57055;SDS011;42945;51.718;5.324;2023-02-28T04:21:34;8.73;;;5.22;;
57055;SDS011;42945;51.718;5.324;2023-02-28T04:27:23;9.60;;;5.13;;
57055;SDS011;42945;51.718;5.324;2023-02-28T04:33:10;12.10;;;6.03;;
57055;SDS011;42945;51.718;5.324;2023-02-28T04:38:58;9.95;;;6.00;;
57055;SDS011;42945;51.718;5.324;2023-02-28T04:44:46;12.15;;;5.45;;
57055;SDS011;42945;51.718;5.324;2023-02-28T04:50:34;9.75;;;5.32;;
57055;SDS011;42945;51.718;5.324;2023-02-28T04:56:21;7.00;;;4.40;;
57055;SDS011;42945;51.718;5.324;2023-02-28T05:02:10;12.65;;;4.90;;
57055;SDS011;42945;51.718;5.324;2023-02-28T05:07:58;11.75;;;4.75;;
57055;SDS011;42945;51.718;5.324;2023-02-28T05:13:45;7.10;;;4.35;;
57055;SDS011;42945;51.718;5.324;2023-02-28T05:23:35;7.82;;;4.40;;
57055;SDS011;42945;51.718;5.324;2023-02-28T05:29:23;9.30;;;4.10;;
57055;SDS011;42945;51.718;5.324;2023-02-28T05:35:10;8.55;;;4.28;;
57055;SDS011;42945;51.718;5.324;2023-02-28T05:40:59;6.35;;;3.45;;
57055;SDS011;42945;51.718;5.324;2023-02-28T05:46:47;9.15;;;4.10;;
57055;SDS011;42945;51.718;5.324;2023-02-28T05:52:34;8.45;;;3.92;;
57055;SDS011;42945;51.718;5.324;2023-02-28T05:58:25;6.18;;;3.85;;
57055;SDS011;42945;51.718;5.324;2023-02-28T06:04:18;6.00;;;3.30;;
57055;SDS011;42945;51.718;5.324;2023-02-28T06:10:07;5.25;;;3.10;;
57055;SDS011;42945;51.718;5.324;2023-02-28T06:16:01;5.38;;;2.90;;
57055;SDS011;42945;51.718;5.324;2023-02-28T06:25:49;5.10;;;2.08;;
57055;SDS011;42945;51.718;5.324;2023-02-28T06:31:37;5.35;;;2.28;;
57055;SDS011;42945;51.718;5.324;2023-02-28T06:37:25;5.55;;;2.25;;
57055;SDS011;42945;51.718;5.324;2023-02-28T06:43:16;22.35;;;9.80;;
57055;SDS011;42945;51.718;5.324;2023-02-28T06:49:05;5.10;;;2.20;;
57055;SDS011;42945;51.718;5.324;2023-02-28T06:54:56;6.38;;;2.60;;
57055;SDS011;42945;51.718;5.324;2023-02-28T07:00:51;8.63;;;2.78;;
57055;SDS011;42945;51.718;5.324;2023-02-28T07:06:39;6.00;;;2.63;;
57055;SDS011;42945;51.718;5.324;2023-02-28T07:12:27;5.50;;;2.22;;
57055;SDS011;42945;51.718;5.324;2023-02-28T07:18:14;4.20;;;2.75;;
57055;SDS011;42945;51.718;5.324;2023-02-28T07:27:57;9.13;;;3.45;;
57055;SDS011;42945;51.718;5.324;2023-02-28T07:33:46;5.47;;;3.25;;
57055;SDS011;42945;51.718;5.324;2023-02-28T07:39:34;4.63;;;2.72;;
57055;SDS011;42945;51.718;5.324;2023-02-28T07:45:21;7.60;;;4.20;;
57055;SDS011;42945;51.718;5.324;2023-02-28T07:51:09;6.57;;;2.70;;
57055;SDS011;42945;51.718;5.324;2023-02-28T07:56:57;7.10;;;3.17;;
57055;SDS011;42945;51.718;5.324;2023-02-28T08:02:45;5.72;;;3.08;;
57055;SDS011;42945;51.718;5.324;2023-02-28T08:08:33;4.18;;;2.65;;
57055;SDS011;42945;51.718;5.324;2023-02-28T08:14:22;3.80;;;1.83;;
57055;SDS011;42945;51.718;5.324;2023-02-28T08:20:10;4.75;;;1.80;;
57055;SDS011;42945;51.718;5.324;2023-02-28T08:25:58;3.10;;;1.38;;
57055;SDS011;42945;51.718;5.324;2023-02-28T08:31:46;4.15;;;1.42;;
57055;SDS011;42945;51.718;5.324;2023-02-28T08:37:35;3.00;;;1.77;;
57055;SDS011;42945;51.718;5.324;2023-02-28T08:43:23;2.40;;;1.25;;
57055;SDS011;42945;51.718;5.324;2023-02-28T08:49:12;3.67;;;1.60;;
57055;SDS011;42945;51.718;5.324;2023-02-28T08:55:00;4.60;;;1.40;;
57055;SDS011;42945;51.718;5.324;2023-02-28T09:00:49;2.30;;;1.58;;
57055;SDS011;42945;51.718;5.324;2023-02-28T09:06:38;2.38;;;1.70;;
57055;SDS011;42945;51.718;5.324;2023-02-28T09:12:27;3.10;;;1.60;;
57055;SDS011;42945;51.718;5.324;2023-02-28T09:18:21;4.47;;;1.55;;
57055;SDS011;42945;51.718;5.324;2023-02-28T09:24:09;2.97;;;1.48;;
57055;SDS011;42945;51.718;5.324;2023-02-28T09:30:00;3.13;;;1.42;;
57055;SDS011;42945;51.718;5.324;2023-02-28T09:35:48;2.67;;;1.80;;
57055;SDS011;42945;51.718;5.324;2023-02-28T09:41:37;2.95;;;1.60;;
57055;SDS011;42945;51.718;5.324;2023-02-28T09:47:36;5.97;;;1.60;;
57055;SDS011;42945;51.718;5.324;2023-02-28T09:53:33;2.25;;;1.50;;
57055;SDS011;42945;51.718;5.324;2023-02-28T09:59:29;5.53;;;1.67;;
57055;SDS011;42945;51.718;5.324;2023-02-28T10:05:41;2.53;;;1.60;;
57055;SDS011;42945;51.718;5.324;2023-02-28T10:11:34;2.47;;;1.40;;
57055;SDS011;42945;51.718;5.324;2023-02-28T10:17:27;3.88;;;1.30;;
57055;SDS011;42945;51.718;5.324;2023-02-28T10:23:28;1.98;;;1.20;;
57055;SDS011;42945;51.718;5.324;2023-02-28T10:33:20;3.35;;;1.67;;
57055;SDS011;42945;51.718;5.324;2023-02-28T10:45:24;2.53;;;1.30;;
57055;SDS011;42945;51.718;5.324;2023-02-28T10:51:18;2.33;;;1.38;;
57055;SDS011;42945;51.718;5.324;2023-02-28T10:57:17;3.20;;;1.65;;
57055;SDS011;42945;51.718;5.324;2023-02-28T11:03:21;1.42;;;1.17;;
57055;SDS011;42945;51.718;5.324;2023-02-28T11:09:23;2.00;;;1.20;;
57055;SDS011;42945;51.718;5.324;2023-02-28T11:21:36;2.28;;;1.45;;
57055;SDS011;42945;51.718;5.324;2023-02-28T11:33:22;3.78;;;1.30;;
57055;SDS011;42945;51.718;5.324;2023-02-28T11:39:16;2.55;;;1.08;;
57055;SDS011;42945;51.718;5.324;2023-02-28T11:45:15;2.97;;;1.50;;
57055;SDS011;42945;51.718;5.324;2023-02-28T11:51:22;2.63;;;1.30;;
57055;SDS011;42945;51.718;5.324;2023-02-28T11:57:20;2.10;;;1.48;;
57055;SDS011;42945;51.718;5.324;2023-02-28T12:03:25;3.00;;;1.55;;
57055;SDS011;42945;51.718;5.324;2023-02-28T12:09:33;3.30;;;1.73;;
57055;SDS011;42945;51.718;5.324;2023-02-28T12:15:26;3.63;;;1.73;;
57055;SDS011;42945;51.718;5.324;2023-02-28T12:27:19;2.47;;;1.60;;
57055;SDS011;42945;51.718;5.324;2023-02-28T12:33:12;2.88;;;1.48;;
57055;SDS011;42945;51.718;5.324;2023-02-28T12:39:10;4.60;;;1.65;;
57055;SDS011;42945;51.718;5.324;2023-02-28T12:45:15;2.55;;;1.52;;
57055;SDS011;42945;51.718;5.324;2023-02-28T12:51:08;2.88;;;1.85;;
57055;SDS011;42945;51.718;5.324;2023-02-28T13:09:02;3.45;;;1.52;;
57055;SDS011;42945;51.718;5.324;2023-02-28T13:21:09;2.22;;;1.80;;
57055;SDS011;42945;51.718;5.324;2023-02-28T13:27:11;3.75;;;1.80;;
57055;SDS011;42945;51.718;5.324;2023-02-28T13:45:26;4.53;;;2.03;;
57055;SDS011;42945;51.718;5.324;2023-02-28T13:51:27;2.38;;;1.90;;
57055;SDS011;42945;51.718;5.324;2023-02-28T14:21:22;4.78;;;1.90;;
57055;SDS011;42945;51.718;5.324;2023-02-28T14:33:27;3.85;;;1.92;;
57055;SDS011;42945;51.718;5.324;2023-02-28T14:39:31;4.47;;;2.20;;
57055;SDS011;42945;51.718;5.324;2023-02-28T14:45:20;4.30;;;2.30;;
57055;SDS011;42945;51.718;5.324;2023-02-28T14:51:08;3.42;;;1.80;;
57055;SDS011;42945;51.718;5.324;2023-02-28T14:56:57;4.68;;;1.60;;
57055;SDS011;42945;51.718;5.324;2023-02-28T15:02:46;2.70;;;1.63;;
57055;SDS011;42945;51.718;5.324;2023-02-28T15:08:34;3.97;;;1.65;;
57055;SDS011;42945;51.718;5.324;2023-02-28T15:14:24;4.35;;;1.80;;
57055;SDS011;42945;51.718;5.324;2023-02-28T15:20:15;4.07;;;1.90;;
57055;SDS011;42945;51.718;5.324;2023-02-28T15:26:05;4.32;;;1.90;;
57055;SDS011;42945;51.718;5.324;2023-02-28T15:42:11;4.18;;;2.17;;
57055;SDS011;42945;51.718;5.324;2023-02-28T15:48:05;3.88;;;1.92;;
57055;SDS011;42945;51.718;5.324;2023-02-28T15:54:29;7.43;;;2.17;;
57055;SDS011;42945;51.718;5.324;2023-02-28T16:00:27;3.80;;;1.77;;
57055;SDS011;42945;51.718;5.324;2023-02-28T16:12:22;2.92;;;1.98;;
57055;SDS011;42945;51.718;5.324;2023-02-28T16:18:15;2.95;;;1.90;;
57055;SDS011;42945;51.718;5.324;2023-02-28T16:24:05;4.35;;;2.58;;
57055;SDS011;42945;51.718;5.324;2023-02-28T16:29:53;2.67;;;1.90;;
57055;SDS011;42945;51.718;5.324;2023-02-28T16:35:41;3.88;;;1.70;;
57055;SDS011;42945;51.718;5.324;2023-02-28T16:41:29;4.25;;;1.88;;
57055;SDS011;42945;51.718;5.324;2023-02-28T16:47:18;3.25;;;1.92;;
57055;SDS011;42945;51.718;5.324;2023-02-28T16:53:06;5.53;;;2.20;;
57055;SDS011;42945;51.718;5.324;2023-02-28T16:58:54;3.63;;;2.10;;
57055;SDS011;42945;51.718;5.324;2023-02-28T17:04:46;6.53;;;2.40;;
57055;SDS011;42945;51.718;5.324;2023-02-28T17:10:35;3.22;;;1.92;;
57055;SDS011;42945;51.718;5.324;2023-02-28T17:16:29;3.55;;;2.30;;
57055;SDS011;42945;51.718;5.324;2023-02-28T17:22:21;16.48;;;7.47;;
57055;SDS011;42945;51.718;5.324;2023-02-28T17:28:09;3.95;;;2.45;;
57055;SDS011;42945;51.718;5.324;2023-02-28T17:33:57;4.85;;;2.70;;
57055;SDS011;42945;51.718;5.324;2023-02-28T17:39:45;5.35;;;2.60;;
57055;SDS011;42945;51.718;5.324;2023-02-28T17:45:33;4.97;;;2.53;;
57055;SDS011;42945;51.718;5.324;2023-02-28T17:51:23;4.80;;;2.67;;
57055;SDS011;42945;51.718;5.324;2023-02-28T17:57:12;9.07;;;3.05;;
57055;SDS011;42945;51.718;5.324;2023-02-28T18:03:16;7.18;;;3.28;;
57055;SDS011;42945;51.718;5.324;2023-02-28T18:09:03;5.75;;;3.13;;
57055;SDS011;42945;51.718;5.324;2023-02-28T18:14:52;5.47;;;3.63;;
57055;SDS011;42945;51.718;5.324;2023-02-28T18:20:41;7.07;;;3.53;;
57055;SDS011;42945;51.718;5.324;2023-02-28T18:26:29;7.25;;;3.83;;
57055;SDS011;42945;51.718;5.324;2023-02-28T18:32:18;6.60;;;3.58;;
57055;SDS011;42945;51.718;5.324;2023-02-28T18:38:10;7.63;;;3.35;;
57055;SDS011;42945;51.718;5.324;2023-02-28T18:44:01;8.70;;;3.45;;
57055;SDS011;42945;51.718;5.324;2023-02-28T18:49:49;5.28;;;3.70;;
57055;SDS011;42945;51.718;5.324;2023-02-28T18:55:37;5.72;;;3.45;;
57055;SDS011;42945;51.718;5.324;2023-02-28T19:01:27;7.32;;;3.88;;
57055;SDS011;42945;51.718;5.324;2023-02-28T19:07:18;9.93;;;4.35;;
57055;SDS011;42945;51.718;5.324;2023-02-28T19:13:07;6.85;;;4.10;;
57055;SDS011;42945;51.718;5.324;2023-02-28T19:18:55;8.98;;;4.35;;
57055;SDS011;42945;51.718;5.324;2023-02-28T19:24:44;12.02;;;5.18;;
57055;SDS011;42945;51.718;5.324;2023-02-28T19:30:31;9.80;;;4.63;;
57055;SDS011;42945;51.718;5.324;2023-02-28T19:40:08;9.77;;;4.50;;
57055;SDS011;42945;51.718;5.324;2023-02-28T19:46:00;8.60;;;4.28;;
57055;SDS011;42945;51.718;5.324;2023-02-28T19:51:49;8.60;;;4.72;;
57055;SDS011;42945;51.718;5.324;2023-02-28T19:57:38;11.55;;;4.30;;
57055;SDS011;42945;51.718;5.324;2023-02-28T20:03:26;8.02;;;4.45;;
57055;SDS011;42945;51.718;5.324;2023-02-28T20:09:14;16.10;;;5.30;;
57055;SDS011;42945;51.718;5.324;2023-02-28T20:15:03;11.10;;;5.22;;
57055;SDS011;42945;51.718;5.324;2023-02-28T20:20:52;8.98;;;4.68;;
57055;SDS011;42945;51.718;5.324;2023-02-28T20:26:40;10.20;;;4.97;;
57055;SDS011;42945;51.718;5.324;2023-02-28T20:32:29;10.57;;;5.40;;
57055;SDS011;42945;51.718;5.324;2023-02-28T20:42:12;11.95;;;6.18;;
57055;SDS011;42945;51.718;5.324;2023-02-28T20:48:02;16.38;;;7.07;;
57055;SDS011;42945;51.718;5.324;2023-02-28T20:53:50;16.13;;;7.10;;
57055;SDS011;42945;51.718;5.324;2023-02-28T20:59:37;10.63;;;5.68;;
57055;SDS011;42945;51.718;5.324;2023-02-28T21:05:27;12.98;;;6.55;;
57055;SDS011;42945;51.718;5.324;2023-02-28T21:11:17;14.40;;;6.55;;
57055;SDS011;42945;51.718;5.324;2023-02-28T21:17:07;19.17;;;6.53;;
57055;SDS011;42945;51.718;5.324;2023-02-28T21:22:57;13.77;;;7.43;;
57055;SDS011;42945;51.718;5.324;2023-02-28T21:28:54;14.43;;;7.05;;
57055;SDS011;42945;51.718;5.324;2023-02-28T21:34:44;15.40;;;6.82;;
57055;SDS011;42945;51.718;5.324;2023-02-28T21:44:35;15.85;;;7.53;;
57055;SDS011;42945;51.718;5.324;2023-02-28T21:50:23;17.98;;;7.80;;
57055;SDS011;42945;51.718;5.324;2023-02-28T21:56:16;16.45;;;7.68;;
57055;SDS011;42945;51.718;5.324;2023-02-28T22:02:10;15.07;;;7.90;;
57055;SDS011;42945;51.718;5.324;2023-02-28T22:07:59;20.02;;;8.45;;
57055;SDS011;42945;51.718;5.324;2023-02-28T22:13:47;17.63;;;8.98;;
57055;SDS011;42945;51.718;5.324;2023-02-28T22:19:40;12.20;;;6.32;;
57055;SDS011;42945;51.718;5.324;2023-02-28T22:25:29;15.70;;;7.65;;
57055;SDS011;42945;51.718;5.324;2023-02-28T22:31:18;14.98;;;7.55;;
57055;SDS011;42945;51.718;5.324;2023-02-28T22:37:10;15.52;;;6.95;;
57055;SDS011;42945;51.718;5.324;2023-02-28T22:47:00;13.65;;;6.57;;
57055;SDS011;42945;51.718;5.324;2023-02-28T22:52:49;12.27;;;5.72;;
57055;SDS011;42945;51.718;5.324;2023-02-28T22:58:37;12.05;;;6.13;;
57055;SDS011;42945;51.718;5.324;2023-02-28T23:04:25;12.40;;;6.32;;
57055;SDS011;42945;51.718;5.324;2023-02-28T23:10:15;10.55;;;6.07;;
57055;SDS011;42945;51.718;5.324;2023-02-28T23:16:04;14.73;;;7.32;;
57055;SDS011;42945;51.718;5.324;2023-02-28T23:21:54;16.38;;;6.03;;
57055;SDS011;42945;51.718;5.324;2023-02-28T23:27:42;13.50;;;6.18;;
57055;SDS011;42945;51.718;5.324;2023-02-28T23:33:31;13.63;;;6.90;;
57055;SDS011;42945;51.718;5.324;2023-02-28T23:39:20;16.92;;;6.45;;
57055;SDS011;42945;51.718;5.324;2023-02-28T23:49:04;12.68;;;6.10;;
57055;SDS011;42945;51.718;5.324;2023-02-28T23:54:53;14.35;;;6.38;;
